createdAt,value
2023-02-06T00:02:39.777Z,5.07
2023-02-06T00:07:41.287Z,4.40
2023-02-06T00:12:42.757Z,5.18
2023-02-06T00:17:44.321Z,5.07
2023-02-06T00:22:45.798Z,5.25
2023-02-06T00:27:47.306Z,4.45
2023-02-06T00:32:48.877Z,4.60
2023-02-06T00:37:51.034Z,4.20
2023-02-06T00:42:52.550Z,4.90
2023-02-06T00:47:54.122Z,4.85
2023-02-06T00:52:55.685Z,4.35
2023-02-06T00:57:57.176Z,4.93
2023-02-06T01:02:58.813Z,5.47
2023-02-06T01:08:01.479Z,4.45
2023-02-06T01:13:04.326Z,4.85
2023-02-06T01:18:05.875Z,3.88
2023-02-06T01:23:07.445Z,4.10
2023-02-06T01:28:08.990Z,5.30
2023-02-06T01:33:10.474Z,5.85
2023-02-06T01:38:12.018Z,3.85
2023-02-06T01:43:19.393Z,4.45
2023-02-06T01:48:27.162Z,4.20
2023-02-06T01:58:34.907Z,4.82
2023-02-06T02:03:39.552Z,4.07
2023-02-06T02:08:44.263Z,4.47
2023-02-06T02:13:46.246Z,4.43
2023-02-06T02:19:02.827Z,4.18
2023-02-06T02:24:39.196Z,4.07
2023-02-06T02:30:11.454Z,4.38
2023-02-06T02:35:19.789Z,3.95
2023-02-06T02:40:21.228Z,3.97
2023-02-06T02:45:33.461Z,3.90
2023-02-06T02:50:36.452Z,4.25
2023-02-06T02:55:38.210Z,4.07
2023-02-06T03:00:43.989Z,4.55
2023-02-06T03:06:10.272Z,4.82
2023-02-06T03:11:20.521Z,5.95
2023-02-06T03:16:43.494Z,4.40
2023-02-06T03:21:47.415Z,4.22
2023-02-06T03:26:52.472Z,3.97
2023-02-06T03:31:58.143Z,4.15
2023-02-06T03:37:00.250Z,4.25
2023-02-06T03:42:04.518Z,4.18
2023-02-06T03:47:09.208Z,4.18
2023-02-06T03:52:15.501Z,4.05
2023-02-06T03:57:19.354Z,3.88
2023-02-06T04:02:22.685Z,4.15
2023-02-06T04:07:27.428Z,3.33
2023-02-06T04:12:29.068Z,4.32
2023-02-06T04:17:46.496Z,3.88
2023-02-06T04:22:52.264Z,4.18
2023-02-06T04:27:53.940Z,4.85
2023-02-06T04:32:55.553Z,5.03
2023-02-06T04:37:57.120Z,4.00
2023-02-06T04:42:58.655Z,3.15
2023-02-06T04:48:00.155Z,3.90
2023-02-06T04:53:01.701Z,4.35
2023-02-06T04:58:03.263Z,4.45
2023-02-06T05:03:04.727Z,5.30
2023-02-06T05:08:06.240Z,4.97
2023-02-06T05:13:08.084Z,4.65
2023-02-06T05:18:09.623Z,4.97
2023-02-06T05:23:11.129Z,5.05
2023-02-06T05:28:12.692Z,9.00
2023-02-06T05:33:14.474Z,7.30
2023-02-06T05:38:16.049Z,5.50
2023-02-06T05:43:17.857Z,5.10
2023-02-06T05:48:19.376Z,4.55
2023-02-06T05:53:20.908Z,5.50
2023-02-06T05:58:22.570Z,5.13
2023-02-06T06:03:24.205Z,5.05
2023-02-06T06:08:25.786Z,4.40
2023-02-06T06:13:27.380Z,5.07
2023-02-06T06:18:29.001Z,5.15
2023-02-06T06:23:30.540Z,4.82
2023-02-06T06:28:32.103Z,5.22
2023-02-06T06:33:34.431Z,4.72
2023-02-06T06:38:35.957Z,5.22
2023-02-06T06:43:37.737Z,5.15
2023-02-06T06:48:40.222Z,4.72
2023-02-06T06:53:41.776Z,4.38
2023-02-06T06:58:43.337Z,6.50
2023-02-06T07:03:45.370Z,6.80
2023-02-06T07:08:46.890Z,7.38
2023-02-06T07:13:48.371Z,8.40
2023-02-06T07:18:49.840Z,8.48
2023-02-06T07:23:51.349Z,6.63
2023-02-06T07:28:52.865Z,5.88
2023-02-06T07:33:54.324Z,5.80
2023-02-06T07:38:56.167Z,5.15
2023-02-06T07:43:57.703Z,5.47
2023-02-06T07:48:59.188Z,5.97
2023-02-06T07:54:00.663Z,5.95
2023-02-06T07:59:02.452Z,5.65
2023-02-06T08:04:04.098Z,6.05
2023-02-06T08:09:05.979Z,5.25
2023-02-06T08:14:07.570Z,6.22
2023-02-06T08:19:10.920Z,5.57
2023-02-06T08:24:13.138Z,6.38
2023-02-06T08:29:14.700Z,12.18
2023-02-06T08:34:16.419Z,5.97
2023-02-06T08:39:19.198Z,6.57
2023-02-06T08:44:21.192Z,6.10
2023-02-06T08:49:26.880Z,6.13
2023-02-06T08:54:28.508Z,7.30
2023-02-06T08:59:31.012Z,10.80
2023-02-06T09:04:32.648Z,6.38
2023-02-06T09:09:34.121Z,7.90
2023-02-06T09:14:35.622Z,7.38
2023-02-06T09:19:37.109Z,7.43
2023-02-06T09:24:38.578Z,7.63
2023-02-06T09:29:40.084Z,9.10
2023-02-06T09:34:41.636Z,6.88
2023-02-06T09:39:43.168Z,7.00
2023-02-06T09:44:51.246Z,7.60
2023-02-06T09:49:58.409Z,7.55
2023-02-06T09:55:17.088Z,9.15
2023-02-06T10:00:50.698Z,8.63
2023-02-06T10:06:14.627Z,8.77
2023-02-06T10:11:37.856Z,8.43
2023-02-06T10:16:51.207Z,8.85
2023-02-06T10:22:01.843Z,8.07
2023-02-06T10:27:09.543Z,7.03
2023-02-06T10:37:37.721Z,12.10
2023-02-06T10:42:51.231Z,7.30
2023-02-06T10:48:15.406Z,7.10
2023-02-06T10:53:25.718Z,6.55
2023-02-06T10:58:32.911Z,5.85
2023-02-06T11:03:39.555Z,5.33
2023-02-06T11:08:45.373Z,4.97
2023-02-06T11:13:50.588Z,5.50
2023-02-06T11:18:53.877Z,4.95
2023-02-06T11:24:23.296Z,6.35
2023-02-06T11:29:32.073Z,4.60
2023-02-06T11:34:53.754Z,6.93
2023-02-06T11:40:20.297Z,6.50
2023-02-06T11:45:31.089Z,6.22
2023-02-06T11:50:37.788Z,5.63
2023-02-06T11:55:42.592Z,6.97
2023-02-06T12:00:53.125Z,6.18
2023-02-06T12:05:58.512Z,4.63
2023-02-06T12:11:04.869Z,4.75
2023-02-06T12:16:08.213Z,4.20
2023-02-06T12:22:02.477Z,4.88
2023-02-06T12:27:25.945Z,5.13
2023-02-06T12:32:34.532Z,4.00
2023-02-06T12:37:41.288Z,4.55
2023-02-06T12:42:46.439Z,4.85
2023-02-06T12:48:00.037Z,5.13
2023-02-06T12:53:10.412Z,5.22
2023-02-06T12:58:23.739Z,5.45
2023-02-06T13:03:43.801Z,4.15
2023-02-06T13:08:55.975Z,5.25
2023-02-06T13:14:05.558Z,3.85
2023-02-06T13:19:45.960Z,7.03
2023-02-06T13:24:49.938Z,4.45
2023-02-06T13:29:53.844Z,4.25
2023-02-06T13:35:07.320Z,5.75
2023-02-06T13:40:23.783Z,4.68
2023-02-06T13:45:33.284Z,3.97
2023-02-06T13:50:49.502Z,3.95
2023-02-06T13:56:21.816Z,3.28
2023-02-06T14:01:29.946Z,3.70
2023-02-06T14:07:01.826Z,4.05
2023-02-06T14:12:28.672Z,4.07
2023-02-06T14:17:59.039Z,4.80
2023-02-06T14:23:20.621Z,3.80
2023-02-06T14:28:32.063Z,3.00
2023-02-06T14:34:04.494Z,3.88
2023-02-06T14:39:33.801Z,4.07
2023-02-06T14:44:35.412Z,2.85
2023-02-06T14:49:37.953Z,3.35
2023-02-06T14:54:39.496Z,4.07
2023-02-06T15:00:12.506Z,3.10
2023-02-06T15:05:25.005Z,3.42
2023-02-06T15:10:30.428Z,2.80
2023-02-06T15:15:34.183Z,2.90
2023-02-06T15:20:41.154Z,3.30
2023-02-06T15:26:04.144Z,3.10
2023-02-06T15:31:17.585Z,3.45
2023-02-06T15:36:24.955Z,4.25
2023-02-06T15:41:29.692Z,4.35
2023-02-06T15:46:31.640Z,3.88
2023-02-06T15:51:48.788Z,3.55
2023-02-06T15:56:54.772Z,3.60
2023-02-06T16:01:58.061Z,4.20
2023-02-06T16:07:13.890Z,3.05
2023-02-06T16:12:16.503Z,4.90
2023-02-06T16:17:17.939Z,5.68
2023-02-06T16:22:38.542Z,5.07
2023-02-06T16:27:45.722Z,4.03
2023-02-06T16:32:47.261Z,5.18
2023-02-06T16:37:50.277Z,4.45
2023-02-06T16:42:52.526Z,4.15
2023-02-06T16:47:54.984Z,4.18
2023-02-06T16:53:00.891Z,4.40
2023-02-06T16:58:02.448Z,3.97
2023-02-06T17:03:04.006Z,4.82
2023-02-06T17:08:20.267Z,4.65
2023-02-06T17:13:24.014Z,5.45
2023-02-06T17:18:25.531Z,6.00
2023-02-06T17:23:27.076Z,7.80
2023-02-06T17:28:28.597Z,8.63
2023-02-06T17:33:30.130Z,8.88
2023-02-06T17:38:31.891Z,11.55
2023-02-06T17:43:36.210Z,12.18
2023-02-06T17:48:42.597Z,8.13
2023-02-06T17:53:44.189Z,11.07
2023-02-06T17:58:45.730Z,13.85
2023-02-06T18:03:48.092Z,12.15
2023-02-06T18:08:50.072Z,10.23
2023-02-06T18:14:00.638Z,11.63
2023-02-06T18:19:02.469Z,12.60
2023-02-06T18:24:04.536Z,13.73
2023-02-06T18:29:06.989Z,11.73
2023-02-06T18:34:08.579Z,10.48
2023-02-06T18:39:10.547Z,28.48
2023-02-06T18:44:12.779Z,17.85
2023-02-06T18:49:14.247Z,13.02
2023-02-06T18:54:15.735Z,13.27
2023-02-06T18:59:17.267Z,10.82
2023-02-06T19:04:19.949Z,10.38
2023-02-06T19:09:21.506Z,11.57
2023-02-06T19:14:25.291Z,10.43
2023-02-06T19:19:26.817Z,12.98
2023-02-06T19:24:30.714Z,12.52
2023-02-06T19:29:36.226Z,10.82
2023-02-06T19:34:39.830Z,9.95
2023-02-06T19:39:43.199Z,10.48
2023-02-06T19:44:45.758Z,9.73
2023-02-06T19:49:50.318Z,11.50
2023-02-06T19:54:52.119Z,14.77
2023-02-06T19:59:53.670Z,13.18
2023-02-06T20:04:55.220Z,12.55
2023-02-06T20:09:56.805Z,13.10
2023-02-06T20:15:00.304Z,13.35
2023-02-06T20:20:01.865Z,14.05
2023-02-06T20:25:03.413Z,13.75
2023-02-06T20:30:05.561Z,15.60
2023-02-06T20:35:07.187Z,15.18
2023-02-06T20:40:09.311Z,13.88
2023-02-06T20:45:12.139Z,13.55
2023-02-06T20:50:14.427Z,14.05
2023-02-06T20:55:15.972Z,13.70
2023-02-06T21:00:17.641Z,14.57
2023-02-06T21:05:19.200Z,14.43
2023-02-06T21:10:20.776Z,13.63
2023-02-06T21:15:22.354Z,13.30
2023-02-06T21:20:23.910Z,17.50
2023-02-06T21:25:26.450Z,16.30
2023-02-06T21:30:28.004Z,16.17
2023-02-06T21:35:32.598Z,17.60
2023-02-06T21:40:34.145Z,19.05
2023-02-06T21:45:38.900Z,18.67
2023-02-06T21:50:41.213Z,17.92
2023-02-06T21:55:43.860Z,18.83
2023-02-06T22:00:47.463Z,19.25
2023-02-06T22:05:49.133Z,18.42
2023-02-06T22:10:50.706Z,17.13
2023-02-06T22:15:52.589Z,17.52
2023-02-06T22:21:06.769Z,14.75
2023-02-06T22:26:10.062Z,14.95
2023-02-06T22:31:16.311Z,13.27
2023-02-06T22:36:21.602Z,13.18
2023-02-06T22:41:23.390Z,13.55
2023-02-06T22:46:30.666Z,14.10
2023-02-06T22:51:32.422Z,14.13
2023-02-06T22:56:37.380Z,13.98
2023-02-06T23:01:56.294Z,15.15
2023-02-06T23:06:57.832Z,13.70
2023-02-06T23:12:01.031Z,13.00
2023-02-06T23:17:03.875Z,12.00
2023-02-06T23:22:05.779Z,12.32
2023-02-06T23:27:07.723Z,11.88
2023-02-06T23:32:09.205Z,10.60
2023-02-06T23:37:10.714Z,9.57
2023-02-06T23:42:12.240Z,9.43
2023-02-06T23:47:13.776Z,10.75
2023-02-06T23:52:15.312Z,8.90
2023-02-06T23:57:16.835Z,9.32
